Time;durP1;ratioP1;P1;durP2;ratioP2;P2;SDS_P1;SDS_P2;PMS_P1;PMS_P2;Temp;Humidity;BMP_temperature;BMP_pressure;BME280_temperature;BME280_humidity;BME280_pressure;Samples;Min_cycle;Max_cycle;Signal;HPM_P1;HPM_P2
2022/04/08 00:00:38;;;;;;;;;;;7.30;99.90;;;;;;5040459;28;19913;-82
2022/04/08 00:03:04;;;;;;;;;;;7.20;99.90;;;;;;5046808;28;19913;-83
2022/04/08 00:05:29;;;;;;;;;;;7.10;65.10;;;;;;5043472;28;19916;-84
2022/04/08 00:07:54;;;;;;;;;;;7.10;1.00;;;;;;5054134;28;19913;-83
2022/04/08 00:10:20;;;;;;;;;;;7.10;1.00;;;;;;5049916;28;19952;-85
2022/04/08 00:12:45;;;;;;;;;;;7.10;99.90;;;;;;5045462;28;19921;-83
2022/04/08 00:15:11;;;;;;;;;;;7.10;99.90;;;;;;5040456;28;19913;-82
2022/04/08 00:17:36;;;;;;;;;;;7.00;99.90;;;;;;5040425;28;19921;-83
2022/04/08 00:20:02;;;;;;;;;;;7.00;1.00;;;;;;5039441;28;19928;-82
2022/04/08 00:22:28;;;;;;;;;;;7.00;99.90;;;;;;5043061;28;19920;-83
2022/04/08 00:24:53;;;;;;;;;;;7.00;49.20;;;;;;5039019;28;19913;-83
2022/04/08 00:27:19;;;;;;;;;;;7.00;99.90;;;;;;5045061;28;19913;-83
2022/04/08 00:29:44;;;;;;;;;;;6.90;99.90;;;;;;5040113;28;19988;-83
2022/04/08 00:32:10;;;;;;;;;;;6.90;17.70;;;;;;5046466;28;19917;-83
2022/04/08 00:34:35;;;;;;;;;;;6.90;39.00;;;;;;5038914;28;19995;-85
2022/04/08 00:37:00;;;;;;;;;;;6.90;3.70;;;;;;5045518;28;20542;-82
2022/04/08 00:39:26;;;;;;;;;;;6.90;97.50;;;;;;5043768;28;20365;-81
2022/04/08 00:41:51;;;;;;;;;;;6.80;99.90;;;;;;5049530;28;19917;-83
2022/04/08 00:44:17;;;;;;;;;;;6.80;99.90;;;;;;5047557;28;19920;-83
2022/04/08 00:46:45;;;;;;;;;;;6.80;99.90;;;;;;5048369;28;19920;-84
2022/04/08 00:49:11;;;;;;;;;;;6.90;99.90;;;;;;5051920;28;19912;-83
2022/04/08 00:51:36;;;;;;;;;;;6.90;1.00;;;;;;5047001;28;19975;-85
2022/04/08 00:54:03;;;;;;;;;;;7.00;99.90;;;;;;5050275;28;20019;-85
2022/04/08 00:56:29;;;;;;;;;;;7.00;92.10;;;;;;5048987;28;19917;-83
2022/04/08 00:58:54;;;;;;;;;;;7.00;1.00;;;;;;5047978;28;19935;-82
2022/04/08 01:01:20;;;;;;;;;;;6.90;1.00;;;;;;5043378;28;19917;-82
2022/04/08 01:03:46;;;;;;;;;;;6.90;70.30;;;;;;5047103;28;19920;-84
2022/04/08 01:06:11;;;;;;;;;;;6.90;99.90;;;;;;5047637;28;20303;-84
2022/04/08 01:08:38;;;;;;;;;;;6.80;1.00;;;;;;5044263;28;19918;-82
2022/04/08 01:11:04;;;;;;;;;;;6.80;1.00;;;;;;5042224;28;19947;-83
2022/04/08 01:13:29;;;;;;;;;;;6.70;99.90;;;;;;5049420;28;19917;-84
2022/04/08 01:15:55;;;;;;;;;;;6.70;99.90;;;;;;5043390;28;19917;-82
2022/04/08 01:18:20;;;;;;;;;;;6.70;99.90;;;;;;5046598;28;19938;-82
2022/04/08 01:20:46;;;;;;;;;;;6.60;99.90;;;;;;5039299;28;20397;-82
2022/04/08 01:23:15;;;;;;;;;;;6.60;99.90;;;;;;5049291;28;19920;-84
2022/04/08 01:25:40;;;;;;;;;;;6.60;99.90;;;;;;5047919;28;19921;-83
2022/04/08 01:28:06;;;;;;;;;;;6.60;99.90;;;;;;5049764;28;20008;-82
2022/04/08 01:30:32;;;;;;;;;;;6.60;1.00;;;;;;5041950;28;19937;-83
2022/04/08 01:32:57;;;;;;;;;;;6.50;1.00;;;;;;5044954;28;19972;-84
2022/04/08 01:35:23;;;;;;;;;;;6.50;42.40;;;;;;5045758;28;19919;-83
2022/04/08 01:37:48;;;;;;;;;;;6.50;99.90;;;;;;5050388;28;20386;-82
2022/04/08 01:40:14;;;;;;;;;;;6.60;99.90;;;;;;5042829;28;19913;-83
2022/04/08 01:42:40;;;;;;;;;;;6.60;99.90;;;;;;5047241;28;19972;-82
2022/04/08 01:45:06;;;;;;;;;;;6.60;1.00;;;;;;5049834;28;19913;-83
2022/04/08 01:47:31;;;;;;;;;;;6.70;1.00;;;;;;5046935;28;19924;-84
2022/04/08 01:49:57;;;;;;;;;;;6.70;1.00;;;;;;5038583;28;19948;-84
2022/04/08 01:52:23;;;;;;;;;;;6.70;1.00;;;;;;5048481;28;19913;-83
2022/04/08 01:54:48;;;;;;;;;;;6.70;99.90;;;;;;5047277;28;19920;-84
2022/04/08 01:57:16;;;;;;;;;;;6.80;99.90;;;;;;5051308;28;20136;-84
2022/04/08 01:59:41;;;;;;;;;;;6.80;1.00;;;;;;5043329;28;19948;-82
2022/04/08 02:02:07;;;;;;;;;;;6.90;1.00;;;;;;5041944;28;19913;-84
2022/04/08 02:04:35;;;;;;;;;;;6.90;1.00;;;;;;5049465;28;19913;-83
2022/04/08 02:07:02;;;;;;;;;;;6.90;1.00;;;;;;5046181;28;20382;-83
2022/04/08 02:09:27;;;;;;;;;;;6.90;1.00;;;;;;5048626;28;19916;-83
2022/04/08 02:11:53;;;;;;;;;;;6.90;1.00;;;;;;5047737;28;19917;-83
2022/04/08 02:14:18;;;;;;;;;;;6.90;1.00;;;;;;5051184;28;19972;-84
2022/04/08 02:16:44;;;;;;;;;;;6.80;1.00;;;;;;5047106;28;20419;-84
2022/04/08 02:19:09;;;;;;;;;;;6.70;99.90;;;;;;5045531;28;20019;-83
2022/04/08 02:21:35;;;;;;;;;;;6.60;99.90;;;;;;5047018;28;20291;-82
2022/04/08 02:24:00;;;;;;;;;;;6.50;99.90;;;;;;5044741;28;19919;-83
2022/04/08 02:26:28;;;;;;;;;;;6.50;99.90;;;;;;5048541;28;19958;-83
2022/04/08 02:28:53;;;;;;;;;;;6.50;99.90;;;;;;5046404;28;19951;-83
2022/04/08 02:31:19;;;;;;;;;;;6.40;99.90;;;;;;5047562;28;19913;-82
2022/04/08 02:33:44;;;;;;;;;;;6.40;99.90;;;;;;5045162;28;19913;-83
2022/04/08 02:36:09;;;;;;;;;;;6.40;99.90;;;;;;5048276;28;19921;-84
2022/04/08 02:38:35;;;;;;;;;;;6.30;99.90;;;;;;5041506;28;19964;-82
2022/04/08 02:41:00;;;;;;;;;;;6.30;99.90;;;;;;5051524;28;20360;-83
2022/04/08 02:43:26;;;;;;;;;;;6.30;99.90;;;;;;5047745;28;20292;-83
2022/04/08 02:45:51;;;;;;;;;;;6.30;99.90;;;;;;5041767;28;19976;-84
2022/04/08 02:48:18;;;;;;;;;;;6.20;48.80;;;;;;5042459;28;20380;-82
2022/04/08 02:50:44;;;;;;;;;;;6.10;15.70;;;;;;5042542;28;19917;-83
2022/04/08 02:53:09;;;;;;;;;;;6.20;49.70;;;;;;5049362;28;19979;-83
2022/04/08 02:55:35;;;;;;;;;;;6.10;95.30;;;;;;5041293;28;19951;-83
2022/04/08 02:58:01;;;;;;;;;;;6.10;51.10;;;;;;5048493;28;19913;-83
2022/04/08 03:00:27;;;;;;;;;;;6.10;83.50;;;;;;5048872;28;19934;-83
2022/04/08 03:02:52;;;;;;;;;;;6.10;22.80;;;;;;5042299;28;20315;-83
2022/04/08 03:05:17;;;;;;;;;;;6.10;1.00;;;;;;5047840;28;19920;-83
2022/04/08 03:07:43;;;;;;;;;;;6.10;1.00;;;;;;5047202;28;19924;-83
2022/04/08 03:10:09;;;;;;;;;;;6.20;1.00;;;;;;5046327;28;19999;-83
2022/04/08 03:12:35;;;;;;;;;;;6.20;1.00;;;;;;5048959;28;19913;-84
2022/04/08 03:15:00;;;;;;;;;;;6.20;1.00;;;;;;5047404;28;19920;-83
2022/04/08 03:17:26;;;;;;;;;;;6.20;1.00;;;;;;5050752;28;19974;-84
2022/04/08 03:19:52;;;;;;;;;;;6.20;1.00;;;;;;5045973;28;19924;-82
2022/04/08 03:22:20;;;;;;;;;;;6.20;1.00;;;;;;5044685;28;19913;-83
2022/04/08 03:24:49;;;;;;;;;;;6.20;1.00;;;;;;5044775;28;19967;-83
2022/04/08 03:27:14;;;;;;;;;;;6.20;28.90;;;;;;5048789;28;19959;-82
2022/04/08 03:29:40;;;;;;;;;;;6.20;75.30;;;;;;5046237;28;19916;-83
2022/04/08 03:32:05;;;;;;;;;;;6.20;99.90;;;;;;5044876;28;19955;-83
2022/04/08 03:34:31;;;;;;;;;;;6.20;99.90;;;;;;5047660;28;19920;-83
2022/04/08 03:36:57;;;;;;;;;;;6.20;99.90;;;;;;5051069;28;20265;-82
2022/04/08 03:39:22;;;;;;;;;;;6.20;99.90;;;;;;5051656;28;19920;-81
2022/04/08 03:41:48;;;;;;;;;;;6.20;99.90;;;;;;5054047;28;19921;-82
2022/04/08 03:44:14;;;;;;;;;;;6.20;99.90;;;;;;5050603;28;19921;-83
2022/04/08 03:46:41;;;;;;;;;;;6.10;99.90;;;;;;5046858;28;20003;-83
2022/04/08 03:49:12;;;;;;;;;;;6.10;99.90;;;;;;5044600;28;19912;-83
2022/04/08 03:51:38;;;;;;;;;;;6.00;99.90;;;;;;5047112;28;20003;-83
2022/04/08 03:54:03;;;;;;;;;;;6.00;99.90;;;;;;5051751;28;19944;-83
2022/04/08 03:56:29;;;;;;;;;;;6.00;99.90;;;;;;5045930;28;20334;-83
2022/04/08 03:58:54;;;;;;;;;;;5.90;99.90;;;;;;5045865;28;19909;-83
2022/04/08 04:01:20;;;;;;;;;;;5.90;99.90;;;;;;5053448;28;19909;-83
2022/04/08 04:03:45;;;;;;;;;;;5.90;99.90;;;;;;5042740;28;19925;-83
2022/04/08 04:06:11;;;;;;;;;;;5.80;99.90;;;;;;5048268;28;20011;-82
2022/04/08 04:08:37;;;;;;;;;;;5.80;99.90;;;;;;5047184;28;19972;-81
2022/04/08 04:11:02;;;;;;;;;;;5.80;99.90;;;;;;5037098;28;19960;-82
2022/04/08 04:13:27;;;;;;;;;;;5.80;99.90;;;;;;5034384;28;20399;-82
2022/04/08 04:15:53;;;;;;;;;;;5.70;99.90;;;;;;5034358;28;20061;-81
2022/04/08 04:18:18;;;;;;;;;;;5.70;99.90;;;;;;5035284;28;19971;-82
2022/04/08 04:20:44;;;;;;;;;;;5.70;1.00;;;;;;5039116;28;19913;-83
2022/04/08 04:23:09;;;;;;;;;;;5.60;1.00;;;;;;5036451;28;19913;-82
2022/04/08 04:25:35;;;;;;;;;;;5.60;1.00;;;;;;5034554;28;19909;-83
2022/04/08 04:28:01;;;;;;;;;;;5.60;1.00;;;;;;5036085;28;19916;-82
2022/04/08 04:30:27;;;;;;;;;;;5.60;1.00;;;;;;5035768;28;19962;-82
2022/04/08 04:32:53;;;;;;;;;;;5.50;1.00;;;;;;5035869;28;20378;-82
2022/04/08 04:35:18;;;;;;;;;;;5.50;1.00;;;;;;5035018;28;19967;-82
2022/04/08 04:37:44;;;;;;;;;;;5.50;1.00;;;;;;5038329;28;19921;-81
2022/04/08 04:40:10;;;;;;;;;;;5.50;1.00;;;;;;5042848;28;19917;-84
2022/04/08 04:42:35;;;;;;;;;;;5.40;1.00;;;;;;5036252;28;19913;-84
2022/04/08 04:45:01;;;;;;;;;;;5.40;1.00;;;;;;5035865;28;19921;-83
2022/04/08 04:47:26;;;;;;;;;;;5.40;1.00;;;;;;5041226;28;19916;-83
2022/04/08 04:49:51;;;;;;;;;;;5.40;1.00;;;;;;5036849;28;19917;-82
2022/04/08 04:52:17;;;;;;;;;;;5.50;1.00;;;;;;5036436;28;20361;-83
2022/04/08 04:54:42;;;;;;;;;;;5.50;1.00;;;;;;5033838;28;19913;-83
2022/04/08 04:57:08;;;;;;;;;;;5.40;1.00;;;;;;5039261;28;19921;-81
2022/04/08 04:59:34;;;;;;;;;;;5.50;1.00;;;;;;5035178;28;19913;-83
2022/04/08 05:01:59;;;;;;;;;;;5.50;1.00;;;;;;5036341;28;20300;-83
2022/04/08 05:04:25;;;;;;;;;;;5.40;1.00;;;;;;5056375;28;20395;-83
2022/04/08 05:06:50;;;;;;;;;;;5.50;1.00;;;;;;5035648;28;19940;-83
2022/04/08 05:09:16;;;;;;;;;;;5.50;1.00;;;;;;5035933;28;19920;-83
2022/04/08 05:11:41;;;;;;;;;;;5.50;1.00;;;;;;5030265;28;19976;-82
2022/04/08 05:14:07;;;;;;;;;;;5.60;1.00;;;;;;5037664;28;19955;-84
2022/04/08 05:16:32;;;;;;;;;;;5.60;99.90;;;;;;5035936;28;20367;-85
2022/04/08 05:18:58;;;;;;;;;;;5.70;99.90;;;;;;5036197;28;19920;-84
2022/04/08 05:21:23;;;;;;;;;;;5.70;99.90;;;;;;5035750;28;20442;-84
2022/04/08 05:23:48;;;;;;;;;;;5.80;99.90;;;;;;5034651;28;20359;-84
2022/04/08 05:26:15;;;;;;;;;;;5.90;99.90;;;;;;5038517;28;19932;-83
2022/04/08 05:28:40;;;;;;;;;;;6.00;99.90;;;;;;5035329;28;19909;-84
2022/04/08 05:31:06;;;;;;;;;;;6.10;99.90;;;;;;5035197;28;20356;-85
2022/04/08 05:33:31;;;;;;;;;;;6.30;20.70;;;;;;5041826;28;19909;-84
2022/04/08 05:35:57;;;;;;;;;;;6.40;1.00;;;;;;5039619;28;19909;-84
2022/04/08 05:38:22;;;;;;;;;;;6.50;1.00;;;;;;5044799;28;19913;-84
2022/04/08 05:40:49;;;;;;;;;;;6.80;99.90;;;;;;5041253;28;19985;-84
2022/04/08 05:43:15;;;;;;;;;;;7.10;99.70;;;;;;5035983;28;19913;-81
2022/04/08 05:45:41;;;;;;;;;;;7.40;99.90;;;;;;5042113;28;19920;-83
2022/04/08 05:48:07;;;;;;;;;;;7.70;2.90;;;;;;5042618;28;19913;-82
2022/04/08 05:50:32;;;;;;;;;;;8.20;1.00;;;;;;5053932;28;19936;-82
2022/04/08 05:52:58;;;;;;;;;;;9.40;1.00;;;;;;5053923;28;19992;-83
2022/04/08 05:55:23;;;;;;;;;;;11.00;41.80;;;;;;5057301;28;19913;-83
2022/04/08 05:57:49;;;;;;;;;;;13.20;1.00;;;;;;5056321;28;19917;-83
2022/04/08 06:00:15;;;;;;;;;;;14.70;99.90;;;;;;5037538;28;19960;-83
2022/04/08 06:02:45;;;;;;;;;;;15.90;99.90;;;;;;5042622;28;19921;-84
2022/04/08 06:05:11;;;;;;;;;;;16.80;99.90;;;;;;5042664;28;20297;-84
2022/04/08 06:07:50;;;;;;;;;;;17.80;99.90;;;;;;5040942;28;19913;-84
2022/04/08 06:10:21;;;;;;;;;;;18.10;99.90;;;;;;5038827;28;19936;-83
2022/04/08 06:12:48;;;;;;;;;;;18.40;99.90;;;;;;5041323;28;20291;-84
2022/04/08 06:15:14;;;;;;;;;;;19.30;99.90;;;;;;5043346;28;19913;-84
2022/04/08 06:17:39;;;;;;;;;;;20.90;99.90;;;;;;5040593;28;20526;-84
2022/04/08 06:20:06;;;;;;;;;;;21.80;99.90;;;;;;5042764;28;19928;-84
2022/04/08 06:22:31;;;;;;;;;;;22.50;99.90;;;;;;5043055;28;19972;-86
2022/04/08 06:24:57;;;;;;;;;;;23.90;99.90;;;;;;5038461;28;20416;-85
2022/04/08 06:27:22;;;;;;;;;;;25.60;99.90;;;;;;5040595;28;19956;-85
2022/04/08 06:29:48;;;;;;;;;;;27.10;99.90;;;;;;5038677;28;19918;-86
2022/04/08 06:32:13;;;;;;;;;;;26.80;99.90;;;;;;5038923;28;19913;-84
2022/04/08 06:34:39;;;;;;;;;;;26.00;99.90;;;;;;5038400;28;20003;-86
2022/04/08 06:37:05;;;;;;;;;;;25.10;99.90;;;;;;5038346;28;19923;-86
2022/04/08 06:39:31;;;;;;;;;;;23.90;99.90;;;;;;5047710;28;20007;-85
2022/04/08 06:41:57;;;;;;;;;;;23.00;99.90;;;;;;5048727;28;19967;-85
2022/04/08 06:44:22;;;;;;;;;;;22.20;99.90;;;;;;5044176;28;19960;-84
2022/04/08 06:46:48;;;;;;;;;;;22.10;99.90;;;;;;5049362;28;20346;-86
2022/04/08 06:49:14;;;;;;;;;;;23.10;99.90;;;;;;5045129;28;19913;-86
2022/04/08 06:51:39;;;;;;;;;;;24.00;99.90;;;;;;5051950;28;20339;-85
2022/04/08 06:54:04;;;;;;;;;;;24.60;99.90;;;;;;5045617;28;19913;-85
2022/04/08 06:56:30;;;;;;;;;;;24.60;99.90;;;;;;5038945;28;19917;-85
2022/04/08 06:58:55;;;;;;;;;;;23.90;99.90;;;;;;5031894;28;21792;-86
2022/04/08 07:01:22;;;;;;;;;;;23.00;99.90;;;;;;5037566;28;19909;-85
2022/04/08 07:03:48;;;;;;;;;;;21.90;99.90;;;;;;5036636;28;19955;-83
2022/04/08 07:06:13;;;;;;;;;;;20.60;99.90;;;;;;5037826;28;19917;-83
2022/04/08 07:08:39;;;;;;;;;;;19.20;99.90;;;;;;5033292;28;19941;-84
2022/04/08 07:11:04;;;;;;;;;;;17.80;99.90;;;;;;5038307;28;19943;-84
2022/04/08 07:13:30;;;;;;;;;;;16.30;99.90;;;;;;5045955;28;19909;-84
2022/04/08 07:15:55;;;;;;;;;;;15.20;99.90;;;;;;5045706;28;19920;-83
2022/04/08 07:18:21;;;;;;;;;;;14.40;99.90;;;;;;5039212;28;20376;-83
2022/04/08 07:20:47;;;;;;;;;;;13.60;99.90;;;;;;5035143;28;19917;-83
2022/04/08 07:23:12;;;;;;;;;;;13.20;99.90;;;;;;5035627;28;19920;-83
2022/04/08 07:25:39;;;;;;;;;;;12.80;99.90;;;;;;5034390;28;19928;-84
2022/04/08 07:28:04;;;;;;;;;;;12.40;99.90;;;;;;5035867;28;19934;-82
2022/04/08 07:30:30;;;;;;;;;;;12.10;99.90;;;;;;5032686;28;19936;-83
2022/04/08 07:32:55;;;;;;;;;;;11.90;99.90;;;;;;5028155;28;19913;-82
2022/04/08 07:35:22;;;;;;;;;;;11.70;99.90;;;;;;5032495;28;19913;-82
2022/04/08 07:37:48;;;;;;;;;;;11.50;99.90;;;;;;5035081;28;19917;-82
2022/04/08 07:40:13;;;;;;;;;;;11.40;99.90;;;;;;5032681;28;19924;-83
2022/04/08 07:42:39;;;;;;;;;;;11.30;99.90;;;;;;5033644;28;19944;-83
2022/04/08 07:45:04;;;;;;;;;;;11.20;99.90;;;;;;5037486;28;19917;-83
2022/04/08 07:47:30;;;;;;;;;;;11.20;99.90;;;;;;5034091;28;19967;-84
2022/04/08 07:49:56;;;;;;;;;;;11.10;99.90;;;;;;5028394;28;20503;-83
2022/04/08 07:52:22;;;;;;;;;;;11.00;99.90;;;;;;5031346;28;19913;-83
2022/04/08 07:54:47;;;;;;;;;;;11.00;99.90;;;;;;5028907;28;20396;-82
2022/04/08 07:57:13;;;;;;;;;;;11.10;99.90;;;;;;5033339;28;19928;-83
2022/04/08 07:59:39;;;;;;;;;;;11.20;99.90;;;;;;5032112;28;19920;-82
2022/04/08 08:02:04;;;;;;;;;;;11.30;99.90;;;;;;5034130;28;19913;-82
2022/04/08 08:04:30;;;;;;;;;;;11.40;99.90;;;;;;5040942;28;20055;-83
2022/04/08 08:06:55;;;;;;;;;;;11.50;99.90;;;;;;5048929;28;19916;-80
2022/04/08 08:09:21;;;;;;;;;;;11.60;99.90;;;;;;5044298;28;19913;-83
2022/04/08 08:11:47;;;;;;;;;;;11.60;99.90;;;;;;5033323;28;19929;-83
2022/04/08 08:14:12;;;;;;;;;;;11.60;99.90;;;;;;5035656;28;19921;-82
2022/04/08 08:16:38;;;;;;;;;;;11.50;99.90;;;;;;5034435;28;19917;-82
2022/04/08 08:19:03;;;;;;;;;;;11.40;99.90;;;;;;5033800;28;20697;-81
2022/04/08 08:21:29;;;;;;;;;;;11.50;99.90;;;;;;5035055;28;19943;-83
2022/04/08 08:23:54;;;;;;;;;;;11.60;99.90;;;;;;5030507;28;19921;-83
2022/04/08 08:26:20;;;;;;;;;;;11.60;99.90;;;;;;5035250;28;19920;-83
2022/04/08 08:28:45;;;;;;;;;;;11.60;99.90;;;;;;5033794;28;20467;-83
2022/04/08 08:31:11;;;;;;;;;;;11.60;99.90;;;;;;5029505;28;19949;-82
2022/04/08 08:33:36;;;;;;;;;;;11.70;99.90;;;;;;5032061;28;19913;-83
2022/04/08 08:36:02;;;;;;;;;;;11.70;99.90;;;;;;5033890;28;19932;-82
2022/04/08 08:38:27;;;;;;;;;;;11.70;99.90;;;;;;5033631;28;20051;-83
2022/04/08 08:40:53;;;;;;;;;;;11.70;99.90;;;;;;5031213;28;20008;-82
2022/04/08 08:43:19;;;;;;;;;;;11.80;99.90;;;;;;5034987;28;19916;-80
2022/04/08 08:45:45;;;;;;;;;;;11.80;99.90;;;;;;5031992;28;19920;-82
2022/04/08 08:48:12;;;;;;;;;;;11.90;99.90;;;;;;5032012;28;19913;-83
2022/04/08 08:50:39;;;;;;;;;;;11.90;99.90;;;;;;5032155;28;19921;-83
2022/04/08 08:53:04;;;;;;;;;;;12.00;99.90;;;;;;5015626;28;20012;-83
2022/04/08 08:55:30;;;;;;;;;;;11.90;99.90;;;;;;5032099;28;20372;-82
2022/04/08 08:57:55;;;;;;;;;;;12.00;99.90;;;;;;5033588;28;19925;-83
2022/04/08 09:00:23;;;;;;;;;;;12.00;99.90;;;;;;5036086;28;19920;-82
2022/04/08 09:02:49;;;;;;;;;;;12.00;99.90;;;;;;5039282;28;19913;-83
2022/04/08 09:05:14;;;;;;;;;;;12.10;99.90;;;;;;5038175;28;20010;-83
2022/04/08 09:07:40;;;;;;;;;;;12.30;99.90;;;;;;5030758;28;19913;-83
2022/04/08 09:10:06;;;;;;;;;;;12.40;99.90;;;;;;5038386;28;20238;-84
2022/04/08 09:12:31;;;;;;;;;;;12.50;99.90;;;;;;5034465;28;19948;-83
2022/04/08 09:14:58;;;;;;;;;;;12.50;99.90;;;;;;5037795;28;19972;-83
2022/04/08 09:17:24;;;;;;;;;;;12.50;99.90;;;;;;5037059;28;19923;-83
2022/04/08 09:19:54;;;;;;;;;;;12.50;99.90;;;;;;5037803;28;19928;-83
2022/04/08 09:22:20;;;;;;;;;;;12.40;99.90;;;;;;5038525;28;19924;-82
2022/04/08 09:24:45;;;;;;;;;;;12.40;99.90;;;;;;5037459;28;20300;-83
2022/04/08 09:27:11;;;;;;;;;;;12.20;99.90;;;;;;5035347;28;19944;-83
2022/04/08 09:29:37;;;;;;;;;;;12.20;99.90;;;;;;5034153;28;19944;-83
2022/04/08 09:32:09;;;;;;;;;;;12.10;99.90;;;;;;5034302;28;19955;-84
2022/04/08 09:34:35;;;;;;;;;;;12.10;99.90;;;;;;5038373;28;19917;-83
2022/04/08 09:37:11;;;;;;;;;;;12.00;99.90;;;;;;5035048;28;19969;-83
2022/04/08 09:39:57;;;;;;;;;;;12.00;99.90;;;;;;5034073;28;19956;-83
2022/04/08 09:42:42;;;;;;;;;;;12.10;99.90;;;;;;5035324;28;20327;-84
2022/04/08 09:45:09;;;;;;;;;;;12.10;99.90;;;;;;5034567;28;19992;-83
2022/04/08 09:47:34;;;;;;;;;;;12.10;99.90;;;;;;5044984;28;19912;-83
2022/04/08 09:50:00;;;;;;;;;;;12.10;99.90;;;;;;5052967;28;19935;-83
2022/04/08 09:52:26;;;;;;;;;;;12.20;99.90;;;;;;5045758;28;19967;-83
2022/04/08 09:54:52;;;;;;;;;;;12.10;99.90;;;;;;5042103;28;19921;-82
2022/04/08 09:57:18;;;;;;;;;;;12.20;99.90;;;;;;5041092;28;20050;-82
2022/04/08 09:59:44;;;;;;;;;;;12.20;99.90;;;;;;5046592;28;19958;-84
2022/04/08 10:02:10;;;;;;;;;;;12.10;99.90;;;;;;5034974;28;19948;-83
2022/04/08 10:04:36;;;;;;;;;;;12.10;99.90;;;;;;5035625;28;20353;-84
2022/04/08 10:07:02;;;;;;;;;;;12.10;99.90;;;;;;5039289;28;19920;-83
2022/04/08 10:09:31;;;;;;;;;;;12.10;99.90;;;;;;5034417;28;19913;-83
2022/04/08 10:11:57;;;;;;;;;;;12.10;99.90;;;;;;5037225;28;19913;-83
2022/04/08 10:14:30;;;;;;;;;;;12.10;99.90;;;;;;5035404;28;20012;-83
2022/04/08 10:16:57;;;;;;;;;;;12.10;99.90;;;;;;5035249;28;20905;-82
2022/04/08 10:19:22;;;;;;;;;;;12.00;99.90;;;;;;5040538;28;19924;-84
2022/04/08 10:21:53;;;;;;;;;;;11.90;99.90;;;;;;5046280;28;20392;-84
2022/04/08 10:24:25;;;;;;;;;;;11.90;99.90;;;;;;5034445;28;19917;-84
2022/04/08 10:27:09;;;;;;;;;;;11.80;99.90;;;;;;5037397;28;19967;-83
2022/04/08 10:29:35;;;;;;;;;;;11.80;99.90;;;;;;5030687;28;19913;-84
2022/04/08 10:32:02;;;;;;;;;;;11.80;99.90;;;;;;5037969;28;20410;-84
2022/04/08 10:34:32;;;;;;;;;;;11.70;99.90;;;;;;5055051;28;19913;-81
2022/04/08 10:36:58;;;;;;;;;;;11.70;99.90;;;;;;5043767;28;19917;-83
2022/04/08 10:39:23;;;;;;;;;;;11.60;99.90;;;;;;5051135;28;19965;-84
2022/04/08 10:41:50;;;;;;;;;;;11.60;99.90;;;;;;5036992;28;19952;-85
2022/04/08 10:44:16;;;;;;;;;;;11.60;99.90;;;;;;5037911;28;20553;-81
2022/04/08 10:47:01;;;;;;;;;;;11.60;99.90;;;;;;5051071;28;19935;-82
2022/04/08 10:49:26;;;;;;;;;;;11.60;99.90;;;;;;5047341;28;19914;-83
2022/04/08 10:51:52;;;;;;;;;;;11.60;99.90;;;;;;5050544;28;20027;-84
2022/04/08 10:54:18;;;;;;;;;;;11.60;99.90;;;;;;5050404;28;20349;-82
2022/04/08 10:56:43;;;;;;;;;;;11.60;99.90;;;;;;5037027;28;19917;-85
2022/04/08 10:59:09;;;;;;;;;;;11.70;99.90;;;;;;5041953;28;19913;-83
2022/04/08 11:01:57;;;;;;;;;;;11.60;99.90;;;;;;5045847;28;20392;-84
2022/04/08 11:04:26;;;;;;;;;;;11.60;99.90;;;;;;5036640;28;19914;-83
2022/04/08 11:06:51;;;;;;;;;;;11.50;99.90;;;;;;5038725;28;19999;-83
2022/04/08 11:09:17;;;;;;;;;;;11.50;99.90;;;;;;5040859;28;20474;-84
2022/04/08 11:11:43;;;;;;;;;;;11.60;99.90;;;;;;5046463;28;19913;-83
2022/04/08 11:14:09;;;;;;;;;;;11.70;99.90;;;;;;5048759;28;20274;-83
2022/04/08 11:16:35;;;;;;;;;;;11.80;99.90;;;;;;5041320;28;20008;-85
2022/04/08 11:19:03;;;;;;;;;;;11.90;99.90;;;;;;5038839;28;19917;-82
2022/04/08 11:21:28;;;;;;;;;;;12.10;99.90;;;;;;5044301;28;19916;-83
2022/04/08 11:23:58;;;;;;;;;;;12.10;99.90;;;;;;5041276;28;19917;-83
2022/04/08 11:26:24;;;;;;;;;;;12.20;99.90;;;;;;5043460;28;19987;-82
2022/04/08 11:28:49;;;;;;;;;;;12.30;99.90;;;;;;5047610;28;19913;-83
2022/04/08 11:31:17;;;;;;;;;;;12.30;99.90;;;;;;5037086;28;19913;-83
2022/04/08 11:33:42;;;;;;;;;;;12.40;99.90;;;;;;5054506;28;19913;-83
2022/04/08 11:36:08;;;;;;;;;;;12.40;99.90;;;;;;5038835;28;20404;-83
2022/04/08 11:38:34;;;;;;;;;;;12.40;99.90;;;;;;5040170;28;19944;-83
2022/04/08 11:41:01;;;;;;;;;;;12.40;99.90;;;;;;5037797;28;19909;-84
2022/04/08 11:43:26;;;;;;;;;;;12.40;99.90;;;;;;5038670;28;20293;-83
2022/04/08 11:45:55;;;;;;;;;;;12.20;99.90;;;;;;5046021;28;19915;-82
2022/04/08 11:48:21;;;;;;;;;;;12.30;99.90;;;;;;5050902;28;20276;-82
2022/04/08 11:50:47;;;;;;;;;;;12.20;99.90;;;;;;5047618;28;19916;-80
2022/04/08 11:53:22;;;;;;;;;;;12.30;99.90;;;;;;5044465;28;19960;-83
2022/04/08 11:55:54;;;;;;;;;;;12.30;99.90;;;;;;5044253;28;19909;-82
2022/04/08 11:58:20;;;;;;;;;;;12.30;99.90;;;;;;5042275;28;19916;-83
2022/04/08 12:00:49;;;;;;;;;;;12.30;99.90;;;;;;5047842;28;19909;-83
2022/04/08 12:03:20;;;;;;;;;;;12.30;99.90;;;;;;5049423;28;19920;-83
2022/04/08 12:05:46;;;;;;;;;;;12.30;99.90;;;;;;5041777;28;19909;-84
2022/04/08 12:08:12;;;;;;;;;;;12.30;99.90;;;;;;5051090;28;19913;-84
2022/04/08 12:10:37;;;;;;;;;;;12.30;99.90;;;;;;5051832;28;19913;-84
2022/04/08 12:13:13;;;;;;;;;;;12.30;99.90;;;;;;5029515;28;19955;-82
2022/04/08 12:15:46;;;;;;;;;;;12.40;99.90;;;;;;5022265;28;19918;-83
2022/04/08 12:18:11;;;;;;;;;;;12.40;99.90;;;;;;5018518;28;19921;-83
2022/04/08 12:20:38;;;;;;;;;;;12.50;99.90;;;;;;4976112;28;1758368;-83
2022/04/08 12:23:04;;;;;;;;;;;12.40;99.90;;;;;;5030618;28;20443;-84
2022/04/08 12:25:32;;;;;;;;;;;12.40;99.90;;;;;;5017973;28;19913;-83
2022/04/08 12:27:59;;;;;;;;;;;12.30;99.90;;;;;;5020170;28;19996;-83
2022/04/08 12:30:25;;;;;;;;;;;12.40;99.90;;;;;;5028492;28;19921;-83
2022/04/08 12:32:50;;;;;;;;;;;12.30;99.90;;;;;;5039699;28;19979;-82
2022/04/08 12:35:16;;;;;;;;;;;12.40;99.90;;;;;;5029559;28;19917;-82
2022/04/08 12:37:41;;;;;;;;;;;12.40;99.90;;;;;;5041222;28;19917;-82
2022/04/08 12:40:07;;;;;;;;;;;12.40;99.90;;;;;;5035207;28;19914;-83
2022/04/08 12:42:34;;;;;;;;;;;12.40;99.90;;;;;;5038711;28;19939;-83
2022/04/08 12:44:59;;;;;;;;;;;12.40;99.90;;;;;;5051829;28;19952;-84
2022/04/08 12:47:25;;;;;;;;;;;12.30;99.90;;;;;;5040079;28;20224;-82
2022/04/08 12:49:50;;;;;;;;;;;12.20;99.90;;;;;;5059575;28;19909;-84
2022/04/08 12:52:16;;;;;;;;;;;12.30;99.90;;;;;;5044781;28;19919;-82
2022/04/08 12:54:41;;;;;;;;;;;12.30;99.90;;;;;;5048521;28;20332;-83
2022/04/08 12:57:07;;;;;;;;;;;12.40;99.90;;;;;;5045671;28;19923;-83
2022/04/08 12:59:32;;;;;;;;;;;12.40;99.90;;;;;;5051889;28;19917;-82
2022/04/08 13:01:58;;;;;;;;;;;12.30;99.90;;;;;;5052405;28;19940;-83
2022/04/08 13:04:23;;;;;;;;;;;12.10;99.90;;;;;;5049746;28;19909;-81
2022/04/08 13:06:50;;;;;;;;;;;12.10;99.90;;;;;;5049475;28;19913;-83
2022/04/08 13:09:15;;;;;;;;;;;12.10;99.90;;;;;;5052200;28;20353;-83
2022/04/08 13:11:43;;;;;;;;;;;12.10;99.90;;;;;;5043925;28;19953;-83
2022/04/08 13:14:08;;;;;;;;;;;12.20;99.90;;;;;;5042397;28;19956;-83
2022/04/08 13:16:34;;;;;;;;;;;12.20;99.90;;;;;;5047279;28;19924;-84
2022/04/08 13:18:59;;;;;;;;;;;12.30;99.90;;;;;;5049633;28;20385;-83
2022/04/08 13:21:24;;;;;;;;;;;12.40;99.90;;;;;;5048608;28;19966;-82
2022/04/08 13:23:50;;;;;;;;;;;12.60;99.90;;;;;;5049070;28;19913;-84
2022/04/08 13:26:15;;;;;;;;;;;12.70;99.90;;;;;;5051734;28;19927;-84
2022/04/08 13:28:41;;;;;;;;;;;12.60;99.90;;;;;;5042791;28;19913;-83
2022/04/08 13:31:06;;;;;;;;;;;12.60;99.90;;;;;;5050720;28;19951;-82
2022/04/08 13:33:32;;;;;;;;;;;12.60;99.90;;;;;;5056684;28;19957;-83
2022/04/08 13:36:00;;;;;;;;;;;12.60;99.90;;;;;;5039182;28;19955;-81
2022/04/08 13:38:26;;;;;;;;;;;12.70;99.90;;;;;;5051572;28;19963;-84
2022/04/08 13:40:52;;;;;;;;;;;12.90;99.90;;;;;;5049904;28;19913;-81
2022/04/08 13:43:18;;;;;;;;;;;12.90;99.90;;;;;;5044488;28;19912;-82
2022/04/08 13:45:43;;;;;;;;;;;12.90;99.90;;;;;;5048435;28;19962;-84
2022/04/08 13:48:09;;;;;;;;;;;13.10;99.90;;;;;;5042570;28;19968;-84
2022/04/08 13:50:34;;;;;;;;;;;13.20;99.90;;;;;;5047318;28;19920;-84
2022/04/08 13:52:59;;;;;;;;;;;13.30;99.90;;;;;;5049535;28;19913;-83
2022/04/08 13:55:25;;;;;;;;;;;13.50;99.90;;;;;;5048399;28;19956;-84
2022/04/08 13:57:50;;;;;;;;;;;13.50;99.90;;;;;;5043899;28;19917;-82
2022/04/08 14:00:16;;;;;;;;;;;13.50;99.90;;;;;;5050443;28;19913;-82
2022/04/08 14:02:43;;;;;;;;;;;13.70;99.90;;;;;;5040544;28;19935;-83
2022/04/08 14:05:08;;;;;;;;;;;13.60;99.90;;;;;;5050709;28;19919;-84
2022/04/08 14:07:34;;;;;;;;;;;13.40;99.90;;;;;;5043707;28;19948;-83
2022/04/08 14:09:59;;;;;;;;;;;13.30;99.90;;;;;;5045986;28;19914;-83
2022/04/08 14:12:26;;;;;;;;;;;13.40;99.90;;;;;;5052391;28;19909;-82
2022/04/08 14:14:51;;;;;;;;;;;13.30;99.90;;;;;;5056492;28;19913;-83
2022/04/08 14:17:17;;;;;;;;;;;13.40;99.90;;;;;;5044351;28;19913;-83